createdAt,value
2023-01-29T00:03:37.038Z,61.59
2023-01-29T00:08:40.867Z,60.94
2023-01-29T00:13:44.532Z,60.18
2023-01-29T00:18:48.248Z,63.06
2023-01-29T00:37:50.700Z,58.63
2023-01-29T00:43:44.182Z,60.14
2023-01-29T00:48:48.142Z,62.29
2023-01-29T01:02:04.342Z,62.85
2023-01-29T01:07:08.730Z,58.53
2023-01-29T01:12:38.479Z,61.77
2023-01-29T01:17:42.149Z,61.90
2023-01-29T01:23:10.889Z,57.90
2023-01-29T01:29:10.929Z,63.44
2023-01-29T01:41:59.765Z,61.65
2023-01-29T01:48:25.231Z,60.92
2023-01-29T02:00:49.109Z,61.89
2023-01-29T02:06:16.065Z,61.65
2023-01-29T02:11:21.175Z,62.07
2023-01-29T02:16:50.792Z,62.09
2023-01-29T02:22:47.771Z,62.43
2023-01-29T02:35:27.584Z,63.86
2023-01-29T02:40:54.567Z,63.90
2023-01-29T02:46:20.301Z,64.76
2023-01-29T02:52:02.823Z,64.81
2023-01-29T02:58:23.407Z,64.32
2023-01-29T03:03:39.983Z,64.10
2023-01-29T03:09:08.358Z,63.87
2023-01-29T03:14:57.061Z,63.87
2023-01-29T03:20:04.053Z,63.86
2023-01-29T03:33:18.894Z,65.23
2023-01-29T03:38:22.620Z,64.94
2023-01-29T03:44:19.600Z,64.73
2023-01-29T03:50:00.699Z,64.58
2023-01-29T03:55:50.079Z,64.53
2023-01-29T04:01:02.857Z,65.54
2023-01-29T04:07:01.138Z,65.37
2023-01-29T04:12:15.185Z,65.32
2023-01-29T04:17:33.447Z,65.64
2023-01-29T04:22:40.036Z,66.07
2023-01-29T04:28:28.832Z,66.64
2023-01-29T04:34:04.399Z,66.62
2023-01-29T04:39:41.387Z,67.44
2023-01-29T04:45:33.961Z,68.32
2023-01-29T04:51:25.434Z,67.71
2023-01-29T04:57:04.251Z,68.08
2023-01-29T05:02:12.685Z,67.85
2023-01-29T05:07:19.264Z,67.93
2023-01-29T05:19:43.453Z,67.17
2023-01-29T05:25:43.996Z,67.06
2023-01-29T05:30:55.137Z,67.40
2023-01-29T05:36:55.427Z,67.73
2023-01-29T05:42:05.059Z,67.90
2023-01-29T05:47:08.720Z,67.95
2023-01-29T05:52:37.820Z,68.18
2023-01-29T05:58:20.258Z,68.45
2023-01-29T06:03:24.039Z,68.31
2023-01-29T06:08:46.560Z,68.03
2023-01-29T06:14:47.934Z,68.05
2023-01-29T06:19:55.016Z,67.62
2023-01-29T06:32:04.038Z,67.73
2023-01-29T06:38:02.831Z,68.19
2023-01-29T06:43:06.656Z,68.39
2023-01-29T06:48:12.090Z,67.98
2023-01-29T06:53:19.194Z,67.94
2023-01-29T06:58:26.526Z,68.60
2023-01-29T07:03:32.117Z,67.91
2023-01-29T07:08:41.484Z,67.90
2023-01-29T07:13:49.938Z,67.84
2023-01-29T07:19:18.800Z,67.75
2023-01-29T07:25:24.016Z,67.83
2023-01-29T07:30:28.457Z,67.82
2023-01-29T07:35:36.949Z,67.80
2023-01-29T07:47:44.057Z,68.69
2023-01-29T07:53:26.108Z,69.24
2023-01-29T07:59:45.723Z,69.36
2023-01-29T08:04:49.490Z,68.79
2023-01-29T08:09:53.989Z,68.88
2023-01-29T08:14:57.904Z,68.78
2023-01-29T08:24:41.549Z,68.57
2023-01-29T08:29:53.332Z,68.57
2023-01-29T08:49:02.679Z,69.99
2023-01-29T09:05:50.914Z,69.30
2023-01-29T09:10:54.857Z,69.62
2023-01-29T09:16:03.514Z,69.05
2023-01-29T09:29:18.219Z,68.38
2023-01-29T09:34:21.841Z,68.74
2023-01-29T09:47:56.130Z,68.63
2023-01-29T09:53:29.865Z,68.85
2023-01-29T09:59:01.644Z,69.01
2023-01-29T10:04:54.828Z,69.57
2023-01-29T10:11:09.296Z,69.81
2023-01-29T10:17:00.721Z,69.54
2023-01-29T10:23:05.437Z,69.52
2023-01-29T10:35:39.787Z,70.30
2023-01-29T10:41:19.674Z,70.27
2023-01-29T10:47:01.711Z,70.19
2023-01-29T10:52:26.439Z,70.44
2023-01-29T10:58:08.456Z,70.06
2023-01-29T11:03:29.540Z,69.30
2023-01-29T11:08:58.269Z,69.22
2023-01-29T11:14:12.481Z,70.30
2023-01-29T11:19:17.494Z,69.94
2023-01-29T11:24:21.979Z,70.10
2023-01-29T11:29:48.705Z,70.01
2023-01-29T11:43:14.376Z,70.33
2023-01-29T11:48:27.515Z,69.68
2023-01-29T12:10:41.871Z,69.18
2023-01-29T12:24:23.071Z,69.57
2023-01-29T12:29:57.351Z,70.11
2023-01-29T12:42:18.390Z,69.82
2023-01-29T12:48:02.253Z,69.88
2023-01-29T12:53:55.035Z,69.34
2023-01-29T13:07:46.485Z,68.56
2023-01-29T13:27:48.059Z,69.22
2023-01-29T13:34:11.597Z,68.93
2023-01-29T13:39:29.899Z,68.59
2023-01-29T13:44:39.492Z,68.70
2023-01-29T13:49:57.107Z,68.83
2023-01-29T13:55:09.711Z,69.16
2023-01-29T14:00:38.821Z,69.54
2023-01-29T14:06:39.746Z,69.55
2023-01-29T14:12:39.831Z,69.44
2023-01-29T14:18:19.011Z,69.72
2023-01-29T14:23:50.271Z,70.55
2023-01-29T14:29:25.506Z,70.72
2023-01-29T14:34:52.024Z,71.37
2023-01-29T14:40:55.712Z,71.20
2023-01-29T15:02:38.398Z,71.79
2023-01-29T15:07:55.397Z,72.09
2023-01-29T15:13:56.166Z,71.69
2023-01-29T15:19:26.906Z,71.64
2023-01-29T15:31:21.300Z,72.03
2023-01-29T15:36:30.307Z,72.19
2023-01-29T15:51:58.276Z,72.15
2023-01-29T15:57:06.721Z,71.47
2023-01-29T16:02:35.396Z,71.55
2023-01-29T16:07:40.403Z,71.27
2023-01-29T16:12:47.600Z,70.96
2023-01-29T16:17:55.148Z,71.14
2023-01-29T16:23:00.984Z,71.49
2023-01-29T16:28:07.754Z,71.71
2023-01-29T16:33:17.745Z,71.78
2023-01-29T16:45:43.882Z,71.64
2023-01-29T16:51:13.929Z,71.75
2023-01-29T16:56:45.708Z,72.36
2023-01-29T17:01:50.272Z,72.19
2023-01-29T17:07:02.456Z,72.42
2023-01-29T17:12:17.027Z,72.43
2023-01-29T17:17:20.512Z,72.22
2023-01-29T17:22:23.969Z,72.45
2023-01-29T17:34:35.003Z,71.97
2023-01-29T17:39:38.980Z,71.56
2023-01-29T17:44:44.186Z,72.04
2023-01-29T17:51:05.684Z,72.12
2023-01-29T17:56:35.340Z,72.25
2023-01-29T18:02:29.687Z,71.55
2023-01-29T18:07:33.845Z,71.83
2023-01-29T18:12:57.144Z,72.23
2023-01-29T18:18:01.481Z,71.80
2023-01-29T18:45:24.278Z,72.46
2023-01-29T19:05:30.349Z,73.67
2023-01-29T19:10:36.041Z,74.35
2023-01-29T19:29:56.601Z,74.15
2023-01-29T19:35:00.459Z,74.15
2023-01-29T19:40:07.162Z,74.16
2023-01-29T19:45:12.595Z,73.81
2023-01-29T19:57:33.355Z,73.93
2023-01-29T20:02:40.848Z,74.50
2023-01-29T20:08:43.252Z,74.83
2023-01-29T20:13:53.349Z,74.95
2023-01-29T20:19:14.398Z,74.70
2023-01-29T20:24:24.438Z,75.23
2023-01-29T20:29:31.365Z,75.31
2023-01-29T20:34:38.439Z,75.43
2023-01-29T20:39:45.880Z,74.94
2023-01-29T20:44:53.045Z,75.23
2023-01-29T20:50:00.142Z,75.24
2023-01-29T20:55:57.502Z,75.95
2023-01-29T21:01:53.592Z,76.40
2023-01-29T21:14:19.602Z,75.55
2023-01-29T21:19:23.302Z,75.62
2023-01-29T21:28:54.502Z,75.66
2023-01-29T21:33:58.732Z,75.22
2023-01-29T21:39:25.407Z,75.06
2023-01-29T21:44:33.514Z,74.71
2023-01-29T21:49:46.124Z,74.27
2023-01-29T21:54:54.351Z,74.57
2023-01-29T22:00:02.124Z,74.85
2023-01-29T22:05:18.816Z,74.69
2023-01-29T22:10:24.556Z,74.24
2023-01-29T22:15:30.973Z,74.36
2023-01-29T22:20:37.492Z,74.44
2023-01-29T22:25:41.433Z,74.27
2023-01-29T22:30:47.343Z,74.55
2023-01-29T22:35:54.889Z,74.63
2023-01-29T22:41:01.483Z,74.23
2023-01-29T22:46:09.442Z,74.40
2023-01-29T22:51:14.155Z,74.30
2023-01-29T22:56:20.920Z,74.15
2023-01-29T23:01:32.198Z,73.89
2023-01-29T23:06:35.986Z,73.85
2023-01-29T23:11:40.109Z,74.24
2023-01-29T23:16:43.851Z,74.63
2023-01-29T23:21:47.900Z,74.38
2023-01-29T23:27:10.078Z,74.18
2023-01-29T23:32:18.524Z,73.73
2023-01-29T23:37:22.160Z,73.83
2023-01-29T23:42:26.112Z,74.14
2023-01-29T23:47:29.864Z,74.29
2023-01-29T23:52:33.435Z,74.39
2023-01-29T23:57:37.161Z,74.97
